Nearby METAR Reports

 

EGSS - Stansted Airport, United Kingdom
Distance from station: NW 15mi, 24km
Updated: 26/06/2022 17:20
Clear
Clear
 Wind from S
Wind: S 18 mph , 30 km/h
Temperature: 21°C
Dew Point: 6°C
Humidity: 38%
Barometer: 1012 hPa
Clouds: Clear
Visibility: 6 miles , 10 km
2022/06/26 16:20 EGSS 261620Z AUTO 19016KT 9999 NCD 21/06 Q1012
EGMC - Southend-On-Sea, United Kingdom
Distance from station: SE 15mi, 25km
Updated: 26/06/2022 17:20
Clear
Clear
 Wind from SSW
Wind: SSW 17 mph , 28 km/h
Temperature: 20°C
Dew Point: 6°C
Humidity: 40%
Barometer: 1013 hPa
Summary: Clear
Visibility: greater than 7 miles , 10 km
2022/06/26 16:20 EGMC 261620Z 21015KT CAVOK 20/06 Q1013
 
EGLC - London City Airp, United Kingdom
Distance from station: SW 24mi, 39km
Updated: 26/06/2022 17:20
Clear
Clear
 Wind from SW
Wind: SW 15 mph , 24 km/h
Temperature: 20°C
Dew Point: 5°C
Humidity: 38%
Barometer: 1013 hPa
Clouds: Clear
Visibility: 6 miles , 10 km
2022/06/26 16:20 EGLC 261620Z AUTO 22013KT 180V250 9999 NCD 20/05 Q1013
EGUW - Wattisham Raf, United Kingdom
Distance from station: NE 34mi, 54km
Updated: 26/06/2022 16:50
Partly cloudy
Partly cloudy
 Wind from SSW
Wind: SSW 18 mph , 30 km/h
Temperature: 20°C
Dew Point: 6°C
Humidity: 40%
Barometer: 1012 hPa
Clouds: Partly cloudy
Visibility: 6 miles , 10 km
Cloud details: Partly cloudy 1524 m
2022/06/26 15:50 EGUW 261550Z AUTO 20016KT 9999 SCT050/// 20/06 Q1012
 
EGGW - Luton Airport, United Kingdom
Distance from station: WNW 37mi, 59km
Updated: 26/06/2022 17:20
Clear
Clear
 Wind from SSW
Wind: SSW 15 mph , 24 km/h
Temperature: 19°C
Dew Point: 5°C
Humidity: 40%
Barometer: 1012 hPa
Clouds: Clear
Visibility: 6 miles , 10 km
2022/06/26 16:20 EGGW 261620Z AUTO 20013KT 9999 NCD 19/05 Q1012
EGWU - Northolt Raf, United Kingdom
Distance from station: WSW 40mi, 64km
Updated: 26/06/2022 17:20
Clear
Clear
 Wind from SW
Wind: SW 16 mph , 26 km/h
Temperature: 20°C
Dew Point: 6°C
Humidity: 40%
Barometer: 1012 hPa
Summary: Clear
Visibility: greater than 7 miles , 10 km
2022/06/26 16:20 EGWU 261620Z 23014KT CAVOK 20/06 Q1012 NOSIG